sensor_id;sensor_type;location;lat;lon;timestamp;temperature;humidity
41447;DHT22;27185;52.040;4.490;2023-06-10T00:02:19;23.60;74.10
41447;DHT22;27185;52.040;4.490;2023-06-10T00:05:05;23.60;74.10
41447;DHT22;27185;52.040;4.490;2023-06-10T00:07:53;23.50;74.10
41447;DHT22;27185;52.040;4.490;2023-06-10T00:10:41;23.50;74.00
41447;DHT22;27185;52.040;4.490;2023-06-10T00:13:26;23.40;74.00
41447;DHT22;27185;52.040;4.490;2023-06-10T00:16:12;23.40;74.20
41447;DHT22;27185;52.040;4.490;2023-06-10T00:19:00;23.40;74.30
41447;DHT22;27185;52.040;4.490;2023-06-10T00:21:46;23.30;74.40
41447;DHT22;27185;52.040;4.490;2023-06-10T00:24:32;23.30;74.20
41447;DHT22;27185;52.040;4.490;2023-06-10T00:27:17;23.20;74.20
41447;DHT22;27185;52.040;4.490;2023-06-10T00:30:04;23.20;74.20
41447;DHT22;27185;52.040;4.490;2023-06-10T00:32:52;23.20;74.30
41447;DHT22;27185;52.040;4.490;2023-06-10T00:35:37;23.10;74.10
41447;DHT22;27185;52.040;4.490;2023-06-10T00:38:23;23.10;74.30
41447;DHT22;27185;52.040;4.490;2023-06-10T00:41:08;23.10;74.10
41447;DHT22;27185;52.040;4.490;2023-06-10T00:43:54;23.00;74.40
41447;DHT22;27185;52.040;4.490;2023-06-10T00:46:40;23.00;74.30
41447;DHT22;27185;52.040;4.490;2023-06-10T00:49:25;23.00;74.10
41447;DHT22;27185;52.040;4.490;2023-06-10T00:52:12;22.90;74.00
41447;DHT22;27185;52.040;4.490;2023-06-10T00:54:59;22.90;73.90
41447;DHT22;27185;52.040;4.490;2023-06-10T00:57:45;22.90;73.90
41447;DHT22;27185;52.040;4.490;2023-06-10T01:00:33;22.80;74.00
41447;DHT22;27185;52.040;4.490;2023-06-10T01:03:19;22.80;74.00
41447;DHT22;27185;52.040;4.490;2023-06-10T01:06:41;22.80;74.00
41447;DHT22;27185;52.040;4.490;2023-06-10T01:09:40;22.80;74.00
41447;DHT22;27185;52.040;4.490;2023-06-10T01:13:00;22.70;74.10
41447;DHT22;27185;52.040;4.490;2023-06-10T01:15:52;22.70;74.10
41447;DHT22;27185;52.040;4.490;2023-06-10T01:18:40;22.60;74.00
41447;DHT22;27185;52.040;4.490;2023-06-10T01:21:26;22.60;74.20
41447;DHT22;27185;52.040;4.490;2023-06-10T01:24:12;22.50;74.10
41447;DHT22;27185;52.040;4.490;2023-06-10T01:27:00;22.50;74.20
41447;DHT22;27185;52.040;4.490;2023-06-10T01:29:52;22.50;74.30
41447;DHT22;27185;52.040;4.490;2023-06-10T01:32:43;22.50;74.40
41447;DHT22;27185;52.040;4.490;2023-06-10T01:35:30;22.40;74.20
41447;DHT22;27185;52.040;4.490;2023-06-10T01:38:18;22.40;74.50
41447;DHT22;27185;52.040;4.490;2023-06-10T01:41:05;22.40;74.50
41447;DHT22;27185;52.040;4.490;2023-06-10T01:43:51;22.30;74.40
41447;DHT22;27185;52.040;4.490;2023-06-10T01:46:37;22.30;74.40
41447;DHT22;27185;52.040;4.490;2023-06-10T01:49:22;22.20;74.50
41447;DHT22;27185;52.040;4.490;2023-06-10T01:52:09;22.20;74.60
41447;DHT22;27185;52.040;4.490;2023-06-10T01:54:55;22.10;74.60
41447;DHT22;27185;52.040;4.490;2023-06-10T01:57:40;22.10;74.80
41447;DHT22;27185;52.040;4.490;2023-06-10T02:00:26;22.10;75.00
41447;DHT22;27185;52.040;4.490;2023-06-10T02:03:12;22.10;74.80
41447;DHT22;27185;52.040;4.490;2023-06-10T02:05:57;22.00;75.00
41447;DHT22;27185;52.040;4.490;2023-06-10T02:08:43;22.00;74.90
41447;DHT22;27185;52.040;4.490;2023-06-10T02:11:28;21.90;74.80
41447;DHT22;27185;52.040;4.490;2023-06-10T02:14:14;21.90;74.90
41447;DHT22;27185;52.040;4.490;2023-06-10T02:17:00;21.90;74.80
41447;DHT22;27185;52.040;4.490;2023-06-10T02:19:46;21.90;74.80
41447;DHT22;27185;52.040;4.490;2023-06-10T02:22:37;21.80;74.70
41447;DHT22;27185;52.040;4.490;2023-06-10T02:25:23;21.80;74.80
41447;DHT22;27185;52.040;4.490;2023-06-10T02:28:09;21.70;74.70
41447;DHT22;27185;52.040;4.490;2023-06-10T02:30:54;21.70;74.70
41447;DHT22;27185;52.040;4.490;2023-06-10T02:33:42;21.70;74.80
41447;DHT22;27185;52.040;4.490;2023-06-10T02:36:28;21.60;74.60
41447;DHT22;27185;52.040;4.490;2023-06-10T02:39:13;21.60;74.90
41447;DHT22;27185;52.040;4.490;2023-06-10T02:41:59;21.60;75.00
41447;DHT22;27185;52.040;4.490;2023-06-10T02:44:44;21.50;75.00
41447;DHT22;27185;52.040;4.490;2023-06-10T02:47:30;21.50;75.00
41447;DHT22;27185;52.040;4.490;2023-06-10T02:50:16;21.50;74.90
41447;DHT22;27185;52.040;4.490;2023-06-10T02:53:01;21.40;74.90
41447;DHT22;27185;52.040;4.490;2023-06-10T02:55:47;21.40;75.00
41447;DHT22;27185;52.040;4.490;2023-06-10T02:58:32;21.40;75.00
41447;DHT22;27185;52.040;4.490;2023-06-10T03:01:18;21.30;75.00
41447;DHT22;27185;52.040;4.490;2023-06-10T03:04:04;21.30;74.90
41447;DHT22;27185;52.040;4.490;2023-06-10T03:06:50;21.30;75.00
41447;DHT22;27185;52.040;4.490;2023-06-10T03:09:36;21.20;74.90
41447;DHT22;27185;52.040;4.490;2023-06-10T03:12:21;21.20;75.00
41447;DHT22;27185;52.040;4.490;2023-06-10T03:15:07;21.20;75.00
41447;DHT22;27185;52.040;4.490;2023-06-10T03:17:53;21.10;75.00
41447;DHT22;27185;52.040;4.490;2023-06-10T03:20:38;21.10;75.10
41447;DHT22;27185;52.040;4.490;2023-06-10T03:23:24;21.10;75.20
41447;DHT22;27185;52.040;4.490;2023-06-10T03:26:11;21.10;75.30
41447;DHT22;27185;52.040;4.490;2023-06-10T03:28:58;21.00;75.20
41447;DHT22;27185;52.040;4.490;2023-06-10T03:31:43;21.00;75.10
41447;DHT22;27185;52.040;4.490;2023-06-10T03:34:29;21.00;75.20
41447;DHT22;27185;52.040;4.490;2023-06-10T03:37:15;21.00;75.30
41447;DHT22;27185;52.040;4.490;2023-06-10T03:40:01;20.90;75.20
41447;DHT22;27185;52.040;4.490;2023-06-10T03:42:46;20.90;75.20
41447;DHT22;27185;52.040;4.490;2023-06-10T03:45:32;20.90;75.20
41447;DHT22;27185;52.040;4.490;2023-06-10T03:48:18;20.90;75.30
41447;DHT22;27185;52.040;4.490;2023-06-10T03:51:03;20.90;75.30
41447;DHT22;27185;52.040;4.490;2023-06-10T03:53:49;20.80;75.40
41447;DHT22;27185;52.040;4.490;2023-06-10T03:56:35;20.80;75.40
41447;DHT22;27185;52.040;4.490;2023-06-10T03:59:20;20.80;75.40
41447;DHT22;27185;52.040;4.490;2023-06-10T04:02:06;20.80;75.60
41447;DHT22;27185;52.040;4.490;2023-06-10T04:04:54;20.80;75.60
41447;DHT22;27185;52.040;4.490;2023-06-10T04:07:39;20.80;75.70
41447;DHT22;27185;52.040;4.490;2023-06-10T04:10:29;20.80;75.70
41447;DHT22;27185;52.040;4.490;2023-06-10T04:13:14;20.70;75.80
41447;DHT22;27185;52.040;4.490;2023-06-10T04:16:00;20.70;75.90
41447;DHT22;27185;52.040;4.490;2023-06-10T04:18:46;20.80;76.00
41447;DHT22;27185;52.040;4.490;2023-06-10T04:21:31;20.80;76.10
41447;DHT22;27185;52.040;4.490;2023-06-10T04:24:18;20.80;76.20
41447;DHT22;27185;52.040;4.490;2023-06-10T04:27:04;20.80;76.30
41447;DHT22;27185;52.040;4.490;2023-06-10T04:29:49;20.80;76.40
41447;DHT22;27185;52.040;4.490;2023-06-10T04:32:35;20.80;76.50
41447;DHT22;27185;52.040;4.490;2023-06-10T04:35:21;20.70;76.40
41447;DHT22;27185;52.040;4.490;2023-06-10T04:38:06;20.80;76.60
41447;DHT22;27185;52.040;4.490;2023-06-10T04:40:52;20.80;76.60
41447;DHT22;27185;52.040;4.490;2023-06-10T04:43:38;20.80;76.80
41447;DHT22;27185;52.040;4.490;2023-06-10T04:46:24;20.80;76.80
41447;DHT22;27185;52.040;4.490;2023-06-10T04:49:09;20.90;76.90
41447;DHT22;27185;52.040;4.490;2023-06-10T04:51:55;20.90;77.00
41447;DHT22;27185;52.040;4.490;2023-06-10T04:54:40;20.90;77.00
41447;DHT22;27185;52.040;4.490;2023-06-10T04:57:26;20.90;77.00
41447;DHT22;27185;52.040;4.490;2023-06-10T05:00:12;20.90;77.10
41447;DHT22;27185;52.040;4.490;2023-06-10T05:02:58;21.00;77.20
41447;DHT22;27185;52.040;4.490;2023-06-10T05:05:43;21.00;77.30
41447;DHT22;27185;52.040;4.490;2023-06-10T05:08:29;21.00;77.40
41447;DHT22;27185;52.040;4.490;2023-06-10T05:11:14;21.00;77.40
41447;DHT22;27185;52.040;4.490;2023-06-10T05:14:00;21.10;77.50
41447;DHT22;27185;52.040;4.490;2023-06-10T05:16:46;21.10;77.50
41447;DHT22;27185;52.040;4.490;2023-06-10T05:19:31;21.20;77.80
41447;DHT22;27185;52.040;4.490;2023-06-10T05:22:17;21.20;78.00
41447;DHT22;27185;52.040;4.490;2023-06-10T05:25:03;21.30;77.90
41447;DHT22;27185;52.040;4.490;2023-06-10T05:27:49;21.30;77.90
41447;DHT22;27185;52.040;4.490;2023-06-10T05:30:34;21.30;77.90
41447;DHT22;27185;52.040;4.490;2023-06-10T05:33:20;21.40;78.00
41447;DHT22;27185;52.040;4.490;2023-06-10T05:36:06;21.40;78.00
41447;DHT22;27185;52.040;4.490;2023-06-10T05:38:51;21.50;78.10
41447;DHT22;27185;52.040;4.490;2023-06-10T05:41:37;21.60;78.10
41447;DHT22;27185;52.040;4.490;2023-06-10T05:44:22;21.60;78.20
41447;DHT22;27185;52.040;4.490;2023-06-10T05:47:08;21.70;78.20
41447;DHT22;27185;52.040;4.490;2023-06-10T05:49:54;21.70;78.20
41447;DHT22;27185;52.040;4.490;2023-06-10T05:52:40;21.80;78.20
41447;DHT22;27185;52.040;4.490;2023-06-10T05:55:26;21.80;78.20
41447;DHT22;27185;52.040;4.490;2023-06-10T05:58:12;21.90;78.20
41447;DHT22;27185;52.040;4.490;2023-06-10T06:00:58;22.00;78.30
41447;DHT22;27185;52.040;4.490;2023-06-10T06:03:43;22.00;78.30
41447;DHT22;27185;52.040;4.490;2023-06-10T06:06:29;22.10;78.30
41447;DHT22;27185;52.040;4.490;2023-06-10T06:09:15;22.20;78.90
41447;DHT22;27185;52.040;4.490;2023-06-10T06:12:00;22.30;78.40
41447;DHT22;27185;52.040;4.490;2023-06-10T06:14:46;22.30;78.30
41447;DHT22;27185;52.040;4.490;2023-06-10T06:17:31;22.40;78.30
41447;DHT22;27185;52.040;4.490;2023-06-10T06:20:17;22.50;78.40
41447;DHT22;27185;52.040;4.490;2023-06-10T06:23:03;22.60;78.30
41447;DHT22;27185;52.040;4.490;2023-06-10T06:25:48;22.70;78.20
41447;DHT22;27185;52.040;4.490;2023-06-10T06:28:34;22.80;78.20
41447;DHT22;27185;52.040;4.490;2023-06-10T06:31:19;22.80;78.10
41447;DHT22;27185;52.040;4.490;2023-06-10T06:34:05;22.90;78.10
41447;DHT22;27185;52.040;4.490;2023-06-10T06:36:50;23.10;78.10
41447;DHT22;27185;52.040;4.490;2023-06-10T06:39:36;23.10;78.00
41447;DHT22;27185;52.040;4.490;2023-06-10T06:42:21;23.20;78.00
41447;DHT22;27185;52.040;4.490;2023-06-10T06:45:07;23.30;78.00
41447;DHT22;27185;52.040;4.490;2023-06-10T06:47:53;23.40;77.80
41447;DHT22;27185;52.040;4.490;2023-06-10T06:50:39;23.50;78.40
41447;DHT22;27185;52.040;4.490;2023-06-10T06:53:27;23.60;77.60
41447;DHT22;27185;52.040;4.490;2023-06-10T06:56:12;23.80;77.40
41447;DHT22;27185;52.040;4.490;2023-06-10T06:58:58;23.90;77.20
41447;DHT22;27185;52.040;4.490;2023-06-10T07:01:43;24.00;77.00
41447;DHT22;27185;52.040;4.490;2023-06-10T07:04:29;24.10;76.90
41447;DHT22;27185;52.040;4.490;2023-06-10T07:07:15;24.30;76.20
41447;DHT22;27185;52.040;4.490;2023-06-10T07:10:01;24.40;76.10
41447;DHT22;27185;52.040;4.490;2023-06-10T07:12:47;24.60;75.90
41447;DHT22;27185;52.040;4.490;2023-06-10T07:15:32;24.70;75.50
41447;DHT22;27185;52.040;4.490;2023-06-10T07:18:18;24.80;75.40
41447;DHT22;27185;52.040;4.490;2023-06-10T07:21:04;25.00;75.40
41447;DHT22;27185;52.040;4.490;2023-06-10T07:23:50;25.10;75.10
41447;DHT22;27185;52.040;4.490;2023-06-10T07:26:38;25.20;74.70
41447;DHT22;27185;52.040;4.490;2023-06-10T07:29:24;25.40;74.20
41447;DHT22;27185;52.040;4.490;2023-06-10T07:32:09;25.50;73.70
41447;DHT22;27185;52.040;4.490;2023-06-10T07:34:55;25.60;73.30
41447;DHT22;27185;52.040;4.490;2023-06-10T07:37:41;25.70;73.30
41447;DHT22;27185;52.040;4.490;2023-06-10T07:40:26;25.90;73.50
41447;DHT22;27185;52.040;4.490;2023-06-10T07:43:12;26.00;73.00
41447;DHT22;27185;52.040;4.490;2023-06-10T07:45:57;26.10;72.40
41447;DHT22;27185;52.040;4.490;2023-06-10T07:48:43;26.10;72.00
41447;DHT22;27185;52.040;4.490;2023-06-10T07:51:28;26.30;72.20
41447;DHT22;27185;52.040;4.490;2023-06-10T07:54:14;26.40;72.00
41447;DHT22;27185;52.040;4.490;2023-06-10T07:57:00;26.50;72.10
41447;DHT22;27185;52.040;4.490;2023-06-10T07:59:45;26.60;72.00
41447;DHT22;27185;52.040;4.490;2023-06-10T08:02:31;26.70;72.30
41447;DHT22;27185;52.040;4.490;2023-06-10T08:05:17;26.80;72.50
41447;DHT22;27185;52.040;4.490;2023-06-10T08:08:02;26.90;72.20
41447;DHT22;27185;52.040;4.490;2023-06-10T08:10:48;27.10;71.80
41447;DHT22;27185;52.040;4.490;2023-06-10T08:13:35;27.20;71.20
41447;DHT22;27185;52.040;4.490;2023-06-10T08:16:20;27.30;71.70
41447;DHT22;27185;52.040;4.490;2023-06-10T08:19:06;27.40;71.90
41447;DHT22;27185;52.040;4.490;2023-06-10T08:21:51;27.50;71.90
41447;DHT22;27185;52.040;4.490;2023-06-10T08:24:37;27.70;72.20
41447;DHT22;27185;52.040;4.490;2023-06-10T08:27:23;28.00;71.80
41447;DHT22;27185;52.040;4.490;2023-06-10T08:30:08;28.30;71.50
41447;DHT22;27185;52.040;4.490;2023-06-10T08:32:55;28.50;71.00
41447;DHT22;27185;52.040;4.490;2023-06-10T08:35:41;28.90;71.20
41447;DHT22;27185;52.040;4.490;2023-06-10T08:38:27;29.20;70.30
41447;DHT22;27185;52.040;4.490;2023-06-10T08:41:14;29.50;69.90
41447;DHT22;27185;52.040;4.490;2023-06-10T08:44:03;29.80;69.10
41447;DHT22;27185;52.040;4.490;2023-06-10T08:46:58;30.10;68.90
41447;DHT22;27185;52.040;4.490;2023-06-10T08:49:45;30.20;68.30
41447;DHT22;27185;52.040;4.490;2023-06-10T08:52:43;30.50;68.00
41447;DHT22;27185;52.040;4.490;2023-06-10T08:55:51;30.70;67.80
41447;DHT22;27185;52.040;4.490;2023-06-10T08:58:37;30.90;67.80
41447;DHT22;27185;52.040;4.490;2023-06-10T09:01:28;31.00;67.40
41447;DHT22;27185;52.040;4.490;2023-06-10T09:04:14;31.20;66.40
41447;DHT22;27185;52.040;4.490;2023-06-10T09:07:02;31.20;66.10
41447;DHT22;27185;52.040;4.490;2023-06-10T09:09:49;31.20;65.70
41447;DHT22;27185;52.040;4.490;2023-06-10T09:12:35;31.20;65.80
41447;DHT22;27185;52.040;4.490;2023-06-10T09:15:21;31.20;66.80
41447;DHT22;27185;52.040;4.490;2023-06-10T09:18:06;31.20;66.60
41447;DHT22;27185;52.040;4.490;2023-06-10T09:20:52;31.20;66.40
41447;DHT22;27185;52.040;4.490;2023-06-10T09:23:37;31.30;66.50
41447;DHT22;27185;52.040;4.490;2023-06-10T09:26:30;31.40;66.10
41447;DHT22;27185;52.040;4.490;2023-06-10T09:29:16;31.50;65.80
41447;DHT22;27185;52.040;4.490;2023-06-10T09:32:02;31.60;65.40
41447;DHT22;27185;52.040;4.490;2023-06-10T09:34:48;31.60;64.70
41447;DHT22;27185;52.040;4.490;2023-06-10T09:37:37;31.60;64.60
41447;DHT22;27185;52.040;4.490;2023-06-10T09:40:24;31.60;65.40
41447;DHT22;27185;52.040;4.490;2023-06-10T09:43:09;31.60;64.70
41447;DHT22;27185;52.040;4.490;2023-06-10T09:45:58;31.60;64.80
41447;DHT22;27185;52.040;4.490;2023-06-10T09:48:45;31.70;64.70
41447;DHT22;27185;52.040;4.490;2023-06-10T09:51:31;31.80;64.50
41447;DHT22;27185;52.040;4.490;2023-06-10T09:54:17;31.90;64.30
41447;DHT22;27185;52.040;4.490;2023-06-10T09:57:07;32.10;63.50
41447;DHT22;27185;52.040;4.490;2023-06-10T09:59:55;32.30;63.70
41447;DHT22;27185;52.040;4.490;2023-06-10T10:02:52;32.40;63.20
41447;DHT22;27185;52.040;4.490;2023-06-10T10:05:38;32.50;63.40
41447;DHT22;27185;52.040;4.490;2023-06-10T10:08:24;32.60;62.80
41447;DHT22;27185;52.040;4.490;2023-06-10T10:11:10;32.70;62.80
41447;DHT22;27185;52.040;4.490;2023-06-10T10:13:56;32.90;62.20
41447;DHT22;27185;52.040;4.490;2023-06-10T10:16:42;33.00;62.30
41447;DHT22;27185;52.040;4.490;2023-06-10T10:19:31;33.20;62.40
41447;DHT22;27185;52.040;4.490;2023-06-10T10:22:26;33.30;62.20
41447;DHT22;27185;52.040;4.490;2023-06-10T10:25:16;33.60;61.90
41447;DHT22;27185;52.040;4.490;2023-06-10T10:28:11;33.70;61.20
41447;DHT22;27185;52.040;4.490;2023-06-10T10:31:03;33.90;61.60
41447;DHT22;27185;52.040;4.490;2023-06-10T10:33:52;34.10;60.90
41447;DHT22;27185;52.040;4.490;2023-06-10T10:36:40;34.30;60.60
41447;DHT22;27185;52.040;4.490;2023-06-10T10:39:26;34.30;60.30
41447;DHT22;27185;52.040;4.490;2023-06-10T10:42:13;34.40;60.10
41447;DHT22;27185;52.040;4.490;2023-06-10T10:45:00;34.40;59.30
41447;DHT22;27185;52.040;4.490;2023-06-10T10:47:46;34.50;59.30
41447;DHT22;27185;52.040;4.490;2023-06-10T10:50:37;34.50;58.30
41447;DHT22;27185;52.040;4.490;2023-06-10T10:53:22;34.50;58.00
41447;DHT22;27185;52.040;4.490;2023-06-10T10:56:15;34.40;58.20
41447;DHT22;27185;52.040;4.490;2023-06-10T10:59:04;34.40;58.50
41447;DHT22;27185;52.040;4.490;2023-06-10T11:01:50;34.40;58.30
41447;DHT22;27185;52.040;4.490;2023-06-10T11:04:36;34.50;58.40
41447;DHT22;27185;52.040;4.490;2023-06-10T11:07:24;34.60;58.70
41447;DHT22;27185;52.040;4.490;2023-06-10T11:10:11;34.70;59.40
41447;DHT22;27185;52.040;4.490;2023-06-10T11:12:57;34.80;58.80
41447;DHT22;27185;52.040;4.490;2023-06-10T11:15:47;35.10;58.90
41447;DHT22;27185;52.040;4.490;2023-06-10T11:18:39;35.40;58.00
41447;DHT22;27185;52.040;4.490;2023-06-10T11:21:24;35.60;57.90
41447;DHT22;27185;52.040;4.490;2023-06-10T11:24:14;35.80;57.60
41447;DHT22;27185;52.040;4.490;2023-06-10T11:27:20;36.10;56.60
41447;DHT22;27185;52.040;4.490;2023-06-10T11:32:52;36.40;55.70
41447;DHT22;27185;52.040;4.490;2023-06-10T11:35:39;36.40;56.20
41447;DHT22;27185;52.040;4.490;2023-06-10T11:38:25;36.50;55.80
41447;DHT22;27185;52.040;4.490;2023-06-10T11:41:12;36.50;55.50
41447;DHT22;27185;52.040;4.490;2023-06-10T11:44:11;36.50;55.20
41447;DHT22;27185;52.040;4.490;2023-06-10T11:46:57;36.50;54.40
41447;DHT22;27185;52.040;4.490;2023-06-10T11:49:43;36.50;54.90
41447;DHT22;27185;52.040;4.490;2023-06-10T11:52:30;36.50;55.00
41447;DHT22;27185;52.040;4.490;2023-06-10T11:55:23;36.50;54.30
41447;DHT22;27185;52.040;4.490;2023-06-10T11:58:20;36.50;54.30
41447;DHT22;27185;52.040;4.490;2023-06-10T12:01:05;36.60;54.70
41447;DHT22;27185;52.040;4.490;2023-06-10T12:06:51;36.60;54.10
41447;DHT22;27185;52.040;4.490;2023-06-10T12:09:37;36.60;54.60
41447;DHT22;27185;52.040;4.490;2023-06-10T12:12:23;36.60;52.80
41447;DHT22;27185;52.040;4.490;2023-06-10T12:15:09;36.70;53.10
41447;DHT22;27185;52.040;4.490;2023-06-10T12:17:54;36.80;53.60
41447;DHT22;27185;52.040;4.490;2023-06-10T12:20:40;37.00;53.20
41447;DHT22;27185;52.040;4.490;2023-06-10T12:23:26;37.20;53.20
41447;DHT22;27185;52.040;4.490;2023-06-10T12:26:14;37.40;52.30
41447;DHT22;27185;52.040;4.490;2023-06-10T12:28:59;37.60;52.40
41447;DHT22;27185;52.040;4.490;2023-06-10T12:31:59;37.70;52.10
41447;DHT22;27185;52.040;4.490;2023-06-10T12:34:45;37.80;51.40
41447;DHT22;27185;52.040;4.490;2023-06-10T12:37:32;37.90;51.70
41447;DHT22;27185;52.040;4.490;2023-06-10T12:40:33;37.90;51.50
41447;DHT22;27185;52.040;4.490;2023-06-10T12:43:25;37.90;50.60
41447;DHT22;27185;52.040;4.490;2023-06-10T12:46:11;37.90;50.90
41447;DHT22;27185;52.040;4.490;2023-06-10T12:48:57;37.90;51.40
41447;DHT22;27185;52.040;4.490;2023-06-10T12:51:43;38.00;51.80
41447;DHT22;27185;52.040;4.490;2023-06-10T12:54:28;37.90;51.70
41447;DHT22;27185;52.040;4.490;2023-06-10T12:57:14;37.90;50.20
41447;DHT22;27185;52.040;4.490;2023-06-10T13:00:00;37.90;50.30
41447;DHT22;27185;52.040;4.490;2023-06-10T13:02:49;37.90;50.30
41447;DHT22;27185;52.040;4.490;2023-06-10T13:05:36;37.90;50.20
41447;DHT22;27185;52.040;4.490;2023-06-10T13:08:24;37.80;49.70
41447;DHT22;27185;52.040;4.490;2023-06-10T13:11:10;37.80;51.20
41447;DHT22;27185;52.040;4.490;2023-06-10T13:13:55;37.80;50.70
41447;DHT22;27185;52.040;4.490;2023-06-10T13:16:41;37.90;49.40
41447;DHT22;27185;52.040;4.490;2023-06-10T13:19:28;37.90;50.40
41447;DHT22;27185;52.040;4.490;2023-06-10T13:22:14;38.10;50.10
41447;DHT22;27185;52.040;4.490;2023-06-10T13:25:00;38.20;49.20
41447;DHT22;27185;52.040;4.490;2023-06-10T13:27:46;38.40;49.00
41447;DHT22;27185;52.040;4.490;2023-06-10T13:30:31;38.60;49.00
41447;DHT22;27185;52.040;4.490;2023-06-10T13:33:17;38.70;49.30
41447;DHT22;27185;52.040;4.490;2023-06-10T13:36:02;38.80;49.50
41447;DHT22;27185;52.040;4.490;2023-06-10T13:38:48;39.10;49.20
41447;DHT22;27185;52.040;4.490;2023-06-10T13:41:34;39.30;49.40
41447;DHT22;27185;52.040;4.490;2023-06-10T13:44:20;39.40;48.50
41447;DHT22;27185;52.040;4.490;2023-06-10T13:47:05;39.50;48.60
41447;DHT22;27185;52.040;4.490;2023-06-10T13:49:52;39.50;48.90
41447;DHT22;27185;52.040;4.490;2023-06-10T13:52:37;39.50;48.50
41447;DHT22;27185;52.040;4.490;2023-06-10T13:55:23;39.40;47.90
41447;DHT22;27185;52.040;4.490;2023-06-10T13:58:10;39.40;47.80
41447;DHT22;27185;52.040;4.490;2023-06-10T14:00:55;39.40;48.00
41447;DHT22;27185;52.040;4.490;2023-06-10T14:03:41;39.30;47.10
41447;DHT22;27185;52.040;4.490;2023-06-10T14:06:27;39.10;47.40
41447;DHT22;27185;52.040;4.490;2023-06-10T14:09:13;38.90;47.70
41447;DHT22;27185;52.040;4.490;2023-06-10T14:11:59;38.80;48.20
41447;DHT22;27185;52.040;4.490;2023-06-10T14:14:44;38.70;48.10
41447;DHT22;27185;52.040;4.490;2023-06-10T14:17:30;38.70;47.10
41447;DHT22;27185;52.040;4.490;2023-06-10T14:20:15;38.50;47.00
41447;DHT22;27185;52.040;4.490;2023-06-10T14:23:01;38.30;47.10
41447;DHT22;27185;52.040;4.490;2023-06-10T14:25:46;38.10;47.30
41447;DHT22;27185;52.040;4.490;2023-06-10T14:28:32;38.00;47.70
41447;DHT22;27185;52.040;4.490;2023-06-10T14:31:18;37.80;48.00
41447;DHT22;27185;52.040;4.490;2023-06-10T14:34:03;37.70;48.90
41447;DHT22;27185;52.040;4.490;2023-06-10T14:36:51;37.60;49.00
41447;DHT22;27185;52.040;4.490;2023-06-10T14:39:36;37.70;48.70
41447;DHT22;27185;52.040;4.490;2023-06-10T14:42:22;37.80;48.80
41447;DHT22;27185;52.040;4.490;2023-06-10T14:45:08;37.90;49.20
41447;DHT22;27185;52.040;4.490;2023-06-10T14:47:55;38.10;48.40
41447;DHT22;27185;52.040;4.490;2023-06-10T14:50:40;38.20;48.40
41447;DHT22;27185;52.040;4.490;2023-06-10T14:53:30;38.20;47.90
41447;DHT22;27185;52.040;4.490;2023-06-10T14:56:15;38.20;47.70
41447;DHT22;27185;52.040;4.490;2023-06-10T14:59:01;38.10;47.70
41447;DHT22;27185;52.040;4.490;2023-06-10T15:01:47;38.00;47.30
41447;DHT22;27185;52.040;4.490;2023-06-10T15:04:32;38.00;48.00
41447;DHT22;27185;52.040;4.490;2023-06-10T15:07:18;38.00;48.00
41447;DHT22;27185;52.040;4.490;2023-06-10T15:10:04;38.10;48.30
41447;DHT22;27185;52.040;4.490;2023-06-10T15:12:50;38.30;48.20
41447;DHT22;27185;52.040;4.490;2023-06-10T15:15:40;38.40;48.00
41447;DHT22;27185;52.040;4.490;2023-06-10T15:18:26;38.60;48.00
41447;DHT22;27185;52.040;4.490;2023-06-10T15:21:11;38.80;47.90
41447;DHT22;27185;52.040;4.490;2023-06-10T15:23:57;38.90;47.40
41447;DHT22;27185;52.040;4.490;2023-06-10T15:26:43;38.90;47.60
41447;DHT22;27185;52.040;4.490;2023-06-10T15:29:28;38.80;47.10
41447;DHT22;27185;52.040;4.490;2023-06-10T15:32:14;38.70;47.20
41447;DHT22;27185;52.040;4.490;2023-06-10T15:34:59;38.40;47.10
41447;DHT22;27185;52.040;4.490;2023-06-10T15:37:45;38.30;47.00
41447;DHT22;27185;52.040;4.490;2023-06-10T15:40:30;38.10;48.00
41447;DHT22;27185;52.040;4.490;2023-06-10T15:43:16;37.90;47.30
41447;DHT22;27185;52.040;4.490;2023-06-10T15:46:02;37.80;47.30
41447;DHT22;27185;52.040;4.490;2023-06-10T15:48:47;37.60;47.60
41447;DHT22;27185;52.040;4.490;2023-06-10T15:51:33;37.60;47.60
41447;DHT22;27185;52.040;4.490;2023-06-10T15:54:18;37.50;47.70
41447;DHT22;27185;52.040;4.490;2023-06-10T15:57:04;37.50;47.60
41447;DHT22;27185;52.040;4.490;2023-06-10T15:59:51;37.50;47.40
41447;DHT22;27185;52.040;4.490;2023-06-10T16:02:36;37.40;47.50
41447;DHT22;27185;52.040;4.490;2023-06-10T16:05:22;37.40;47.70
41447;DHT22;27185;52.040;4.490;2023-06-10T16:08:08;37.40;47.80
41447;DHT22;27185;52.040;4.490;2023-06-10T16:10:53;37.50;48.20
41447;DHT22;27185;52.040;4.490;2023-06-10T16:13:39;37.50;47.10
41447;DHT22;27185;52.040;4.490;2023-06-10T16:16:26;37.50;47.10
41447;DHT22;27185;52.040;4.490;2023-06-10T16:19:12;37.50;47.30
41447;DHT22;27185;52.040;4.490;2023-06-10T16:21:57;37.50;47.50
41447;DHT22;27185;52.040;4.490;2023-06-10T16:24:43;37.50;47.40
41447;DHT22;27185;52.040;4.490;2023-06-10T16:27:28;37.50;46.80
41447;DHT22;27185;52.040;4.490;2023-06-10T16:30:14;37.50;46.90
41447;DHT22;27185;52.040;4.490;2023-06-10T16:33:00;37.50;46.70
41447;DHT22;27185;52.040;4.490;2023-06-10T16:35:45;37.30;46.30
41447;DHT22;27185;52.040;4.490;2023-06-10T16:38:31;37.30;46.60
41447;DHT22;27185;52.040;4.490;2023-06-10T16:41:16;37.10;46.60
41447;DHT22;27185;52.040;4.490;2023-06-10T16:44:02;37.20;46.60
41447;DHT22;27185;52.040;4.490;2023-06-10T16:46:48;37.10;46.70
41447;DHT22;27185;52.040;4.490;2023-06-10T16:49:33;37.00;46.70
41447;DHT22;27185;52.040;4.490;2023-06-10T16:52:21;37.00;46.80
41447;DHT22;27185;52.040;4.490;2023-06-10T16:55:07;37.10;46.90
41447;DHT22;27185;52.040;4.490;2023-06-10T16:57:52;37.10;46.70
41447;DHT22;27185;52.040;4.490;2023-06-10T17:00:38;37.10;46.40
41447;DHT22;27185;52.040;4.490;2023-06-10T17:03:24;37.10;46.10
41447;DHT22;27185;52.040;4.490;2023-06-10T17:06:09;36.90;46.00
41447;DHT22;27185;52.040;4.490;2023-06-10T17:08:55;36.90;46.40
41447;DHT22;27185;52.040;4.490;2023-06-10T17:11:41;36.80;46.00
41447;DHT22;27185;52.040;4.490;2023-06-10T17:14:27;36.70;45.90
41447;DHT22;27185;52.040;4.490;2023-06-10T17:17:14;36.60;46.00
41447;DHT22;27185;52.040;4.490;2023-06-10T17:20:00;36.50;46.20
41447;DHT22;27185;52.040;4.490;2023-06-10T17:22:46;36.40;46.10
41447;DHT22;27185;52.040;4.490;2023-06-10T17:25:31;36.50;46.20
41447;DHT22;27185;52.040;4.490;2023-06-10T17:28:19;36.40;46.00
41447;DHT22;27185;52.040;4.490;2023-06-10T17:31:04;36.30;46.00
41447;DHT22;27185;52.040;4.490;2023-06-10T17:33:50;36.30;45.90
41447;DHT22;27185;52.040;4.490;2023-06-10T17:36:36;36.20;46.10
41447;DHT22;27185;52.040;4.490;2023-06-10T17:39:21;36.10;45.90